sensor_id;sensor_type;location;lat;lon;timestamp;pressure;altitude;pressure_sealevel;temperature;humidity
81274;BME280;70753;47.908;11.274;2023-07-29T00:01:35;94574.69;;;19.48;71.21
81274;BME280;70753;47.908;11.274;2023-07-29T00:04:02;94571.22;;;19.47;71.78
81274;BME280;70753;47.908;11.274;2023-07-29T00:06:28;94567.50;;;19.40;72.24
81274;BME280;70753;47.908;11.274;2023-07-29T00:08:54;94569.34;;;19.24;71.81
81274;BME280;70753;47.908;11.274;2023-07-29T00:11:19;94561.06;;;18.92;73.34
81274;BME280;70753;47.908;11.274;2023-07-29T00:13:44;94553.88;;;19.24;72.17
81274;BME280;70753;47.908;11.274;2023-07-29T00:16:10;94562.91;;;19.28;72.45
81274;BME280;70753;47.908;11.274;2023-07-29T00:18:36;94551.75;;;19.30;71.99
81274;BME280;70753;47.908;11.274;2023-07-29T00:21:02;94552.63;;;19.34;71.46
81274;BME280;70753;47.908;11.274;2023-07-29T00:23:29;94554.47;;;19.30;71.72
81274;BME280;70753;47.908;11.274;2023-07-29T00:25:54;94543.66;;;19.30;71.83
81274;BME280;70753;47.908;11.274;2023-07-29T00:28:20;94547.72;;;19.24;72.04
81274;BME280;70753;47.908;11.274;2023-07-29T00:30:45;94550.66;;;19.19;72.03
81274;BME280;70753;47.908;11.274;2023-07-29T00:33:11;94538.69;;;19.32;71.07
81274;BME280;70753;47.908;11.274;2023-07-29T00:35:36;94542.09;;;19.17;72.23
81274;BME280;70753;47.908;11.274;2023-07-29T00:38:04;94543.88;;;19.25;71.23
81274;BME280;70753;47.908;11.274;2023-07-29T00:40:30;94549.09;;;19.18;71.31
81274;BME280;70753;47.908;11.274;2023-07-29T00:43:01;94539.53;;;19.08;71.27
81274;BME280;70753;47.908;11.274;2023-07-29T00:45:27;94543.03;;;19.08;70.84
81274;BME280;70753;47.908;11.274;2023-07-29T00:47:55;94531.78;;;19.06;71.22
81274;BME280;70753;47.908;11.274;2023-07-29T00:50:21;94541.59;;;18.87;72.00
81274;BME280;70753;47.908;11.274;2023-07-29T00:52:47;94533.84;;;18.73;72.07
81274;BME280;70753;47.908;11.274;2023-07-29T00:55:14;94539.69;;;18.75;72.71
81274;BME280;70753;47.908;11.274;2023-07-29T00:57:41;94535.31;;;18.71;72.81
81274;BME280;70753;47.908;11.274;2023-07-29T01:00:07;94534.38;;;18.91;71.27
81274;BME280;70753;47.908;11.274;2023-07-29T01:02:33;94540.84;;;18.74;72.37
81274;BME280;70753;47.908;11.274;2023-07-29T01:04:59;94533.97;;;18.77;72.44
81274;BME280;70753;47.908;11.274;2023-07-29T01:07:32;94533.75;;;18.70;72.79
81274;BME280;70753;47.908;11.274;2023-07-29T01:10:02;94529.16;;;18.70;72.17
81274;BME280;70753;47.908;11.274;2023-07-29T01:12:36;94528.22;;;18.78;71.47
81274;BME280;70753;47.908;11.274;2023-07-29T01:15:10;94526.19;;;18.75;71.68
81274;BME280;70753;47.908;11.274;2023-07-29T01:17:40;94518.13;;;18.63;72.45
81274;BME280;70753;47.908;11.274;2023-07-29T01:20:08;94525.19;;;18.68;72.35
81274;BME280;70753;47.908;11.274;2023-07-29T01:22:35;94514.28;;;18.64;72.44
81274;BME280;70753;47.908;11.274;2023-07-29T01:25:03;94520.00;;;18.75;71.96
81274;BME280;70753;47.908;11.274;2023-07-29T01:27:29;94520.00;;;18.75;71.69
81274;BME280;70753;47.908;11.274;2023-07-29T01:29:56;94516.22;;;18.64;71.80
81274;BME280;70753;47.908;11.274;2023-07-29T01:32:26;94516.66;;;18.66;71.01
81274;BME280;70753;47.908;11.274;2023-07-29T01:34:56;94519.22;;;18.62;71.09
81274;BME280;70753;47.908;11.274;2023-07-29T01:37:27;94508.44;;;18.50;71.72
81274;BME280;70753;47.908;11.274;2023-07-29T01:39:57;94503.41;;;18.49;72.04
81274;BME280;70753;47.908;11.274;2023-07-29T01:42:26;94494.59;;;18.52;72.18
81274;BME280;70753;47.908;11.274;2023-07-29T01:44:51;94499.44;;;18.58;71.89
81274;BME280;70753;47.908;11.274;2023-07-29T01:47:17;94494.81;;;18.59;71.92
81274;BME280;70753;47.908;11.274;2023-07-29T01:49:43;94496.06;;;18.49;72.11
81274;BME280;70753;47.908;11.274;2023-07-29T01:52:08;94495.41;;;18.52;71.72
81274;BME280;70753;47.908;11.274;2023-07-29T01:54:33;94500.56;;;18.45;71.67
81274;BME280;70753;47.908;11.274;2023-07-29T01:56:59;94495.97;;;18.46;71.01
81274;BME280;70753;47.908;11.274;2023-07-29T01:59:26;94502.16;;;18.46;70.99
81274;BME280;70753;47.908;11.274;2023-07-29T02:01:51;94504.34;;;18.32;72.53
81274;BME280;70753;47.908;11.274;2023-07-29T02:04:17;94500.09;;;18.31;72.37
81274;BME280;70753;47.908;11.274;2023-07-29T02:06:42;94494.25;;;18.29;72.90
81274;BME280;70753;47.908;11.274;2023-07-29T02:09:07;94497.63;;;18.26;73.09
81274;BME280;70753;47.908;11.274;2023-07-29T02:11:33;94497.06;;;18.32;72.95
81274;BME280;70753;47.908;11.274;2023-07-29T02:13:59;94501.91;;;18.39;72.10
81274;BME280;70753;47.908;11.274;2023-07-29T02:16:26;94518.78;;;18.36;72.53
81274;BME280;70753;47.908;11.274;2023-07-29T02:18:51;94528.44;;;18.49;71.67
81274;BME280;70753;47.908;11.274;2023-07-29T02:21:17;94521.06;;;18.46;71.58
81274;BME280;70753;47.908;11.274;2023-07-29T02:23:42;94517.66;;;18.49;71.71
81274;BME280;70753;47.908;11.274;2023-07-29T02:26:08;94518.34;;;18.46;71.67
81274;BME280;70753;47.908;11.274;2023-07-29T02:28:34;94533.63;;;18.54;71.51
81274;BME280;70753;47.908;11.274;2023-07-29T02:31:14;94524.66;;;18.50;71.34
81274;BME280;70753;47.908;11.274;2023-07-29T02:33:40;94535.06;;;18.39;72.38
81274;BME280;70753;47.908;11.274;2023-07-29T02:36:06;94538.53;;;18.28;72.78
81274;BME280;70753;47.908;11.274;2023-07-29T02:38:31;94520.78;;;18.27;73.50
81274;BME280;70753;47.908;11.274;2023-07-29T02:40:57;94516.47;;;18.02;73.91
81274;BME280;70753;47.908;11.274;2023-07-29T02:43:22;94518.22;;;18.18;73.99
81274;BME280;70753;47.908;11.274;2023-07-29T02:45:48;94519.44;;;18.21;73.38
81274;BME280;70753;47.908;11.274;2023-07-29T02:48:13;94520.22;;;18.09;74.33
81274;BME280;70753;47.908;11.274;2023-07-29T02:50:40;94523.03;;;18.37;73.38
81274;BME280;70753;47.908;11.274;2023-07-29T02:53:05;94528.59;;;18.53;73.58
81274;BME280;70753;47.908;11.274;2023-07-29T02:55:31;94531.41;;;18.68;72.83
81274;BME280;70753;47.908;11.274;2023-07-29T02:57:56;94512.72;;;18.51;72.84
81274;BME280;70753;47.908;11.274;2023-07-29T03:00:21;94516.19;;;18.76;72.31
81274;BME280;70753;47.908;11.274;2023-07-29T03:02:47;94513.44;;;18.88;71.73
81274;BME280;70753;47.908;11.274;2023-07-29T03:05:12;94518.28;;;18.94;71.43
81274;BME280;70753;47.908;11.274;2023-07-29T03:07:39;94524.38;;;18.43;72.83
81274;BME280;70753;47.908;11.274;2023-07-29T03:10:05;94525.84;;;18.16;74.28
81274;BME280;70753;47.908;11.274;2023-07-29T03:12:33;94510.44;;;18.05;74.65
81274;BME280;70753;47.908;11.274;2023-07-29T03:14:58;94501.59;;;18.53;73.15
81274;BME280;70753;47.908;11.274;2023-07-29T03:17:23;94511.16;;;18.50;72.79
81274;BME280;70753;47.908;11.274;2023-07-29T03:19:49;94509.53;;;18.73;72.19
81274;BME280;70753;47.908;11.274;2023-07-29T03:22:14;94509.09;;;18.71;71.88
81274;BME280;70753;47.908;11.274;2023-07-29T03:24:41;94499.00;;;18.68;72.39
81274;BME280;70753;47.908;11.274;2023-07-29T03:27:06;94516.97;;;18.64;72.94
81274;BME280;70753;47.908;11.274;2023-07-29T03:29:33;94533.84;;;18.73;71.93
81274;BME280;70753;47.908;11.274;2023-07-29T03:31:58;94531.28;;;18.65;72.07
81274;BME280;70753;47.908;11.274;2023-07-29T03:34:24;94534.19;;;18.60;72.17
81274;BME280;70753;47.908;11.274;2023-07-29T03:36:49;94525.63;;;18.58;72.57
81274;BME280;70753;47.908;11.274;2023-07-29T03:39:15;94504.47;;;18.23;74.14
81274;BME280;70753;47.908;11.274;2023-07-29T03:41:42;94494.81;;;18.22;74.39
81274;BME280;70753;47.908;11.274;2023-07-29T03:44:07;94495.16;;;18.21;75.23
81274;BME280;70753;47.908;11.274;2023-07-29T03:46:32;94500.91;;;18.31;75.17
81274;BME280;70753;47.908;11.274;2023-07-29T03:48:58;94494.16;;;18.62;73.94
81274;BME280;70753;47.908;11.274;2023-07-29T03:51:23;94488.19;;;18.68;73.63
81274;BME280;70753;47.908;11.274;2023-07-29T03:53:49;94489.31;;;18.67;73.98
81274;BME280;70753;47.908;11.274;2023-07-29T03:56:14;94495.13;;;18.81;73.60
81274;BME280;70753;47.908;11.274;2023-07-29T03:58:43;94487.72;;;18.30;75.07
81274;BME280;70753;47.908;11.274;2023-07-29T04:01:08;94499.22;;;18.63;74.14
81274;BME280;70753;47.908;11.274;2023-07-29T04:03:34;94483.88;;;18.79;73.52
81274;BME280;70753;47.908;11.274;2023-07-29T04:05:59;94485.47;;;18.80;73.63
81274;BME280;70753;47.908;11.274;2023-07-29T04:08:24;94482.53;;;18.85;73.20
81274;BME280;70753;47.908;11.274;2023-07-29T04:10:50;94473.38;;;18.90;73.01
81274;BME280;70753;47.908;11.274;2023-07-29T04:13:15;94479.56;;;18.90;72.80
81274;BME280;70753;47.908;11.274;2023-07-29T04:15:42;94475.94;;;18.98;72.27
81274;BME280;70753;47.908;11.274;2023-07-29T04:18:08;94469.88;;;19.01;71.86
81274;BME280;70753;47.908;11.274;2023-07-29T04:20:33;94477.69;;;18.79;72.86
81274;BME280;70753;47.908;11.274;2023-07-29T04:22:58;94476.25;;;18.69;73.20
81274;BME280;70753;47.908;11.274;2023-07-29T04:25:24;94474.75;;;18.84;72.47
81274;BME280;70753;47.908;11.274;2023-07-29T04:27:50;94475.31;;;18.77;72.43
81274;BME280;70753;47.908;11.274;2023-07-29T04:30:15;94477.84;;;18.70;72.51
81274;BME280;70753;47.908;11.274;2023-07-29T04:32:42;94483.56;;;18.69;72.61
81274;BME280;70753;47.908;11.274;2023-07-29T04:35:08;94471.75;;;18.13;74.27
81274;BME280;70753;47.908;11.274;2023-07-29T04:37:33;94467.81;;;18.34;73.89
81274;BME280;70753;47.908;11.274;2023-07-29T04:39:59;94471.31;;;18.59;73.59
81274;BME280;70753;47.908;11.274;2023-07-29T04:42:24;94465.00;;;18.67;72.82
81274;BME280;70753;47.908;11.274;2023-07-29T04:44:49;94462.53;;;18.74;72.80
81274;BME280;70753;47.908;11.274;2023-07-29T04:47:15;94464.16;;;18.91;71.91
81274;BME280;70753;47.908;11.274;2023-07-29T04:49:42;94467.41;;;18.96;71.92
81274;BME280;70753;47.908;11.274;2023-07-29T04:52:07;94446.69;;;19.00;72.82
81274;BME280;70753;47.908;11.274;2023-07-29T04:54:33;94440.19;;;18.89;72.50
81274;BME280;70753;47.908;11.274;2023-07-29T04:56:58;94446.94;;;19.23;71.12
81274;BME280;70753;47.908;11.274;2023-07-29T04:59:24;94452.63;;;19.34;70.50
81274;BME280;70753;47.908;11.274;2023-07-29T05:01:49;94449.00;;;19.42;71.55
81274;BME280;70753;47.908;11.274;2023-07-29T05:04:15;94449.13;;;19.45;71.39
81274;BME280;70753;47.908;11.274;2023-07-29T05:06:42;94436.94;;;19.39;72.01
81274;BME280;70753;47.908;11.274;2023-07-29T05:09:14;94442.47;;;19.43;71.27
81274;BME280;70753;47.908;11.274;2023-07-29T05:11:40;94447.66;;;19.63;70.58
81274;BME280;70753;47.908;11.274;2023-07-29T05:14:05;94447.47;;;19.72;70.11
81274;BME280;70753;47.908;11.274;2023-07-29T05:16:31;94440.16;;;19.72;69.80
81274;BME280;70753;47.908;11.274;2023-07-29T05:18:56;94444.78;;;19.72;69.31
81274;BME280;70753;47.908;11.274;2023-07-29T05:21:22;94446.34;;;19.73;70.38
81274;BME280;70753;47.908;11.274;2023-07-29T05:23:49;94453.31;;;19.74;70.93
81274;BME280;70753;47.908;11.274;2023-07-29T05:26:15;94469.06;;;19.84;70.96
81274;BME280;70753;47.908;11.274;2023-07-29T05:28:40;94482.31;;;19.89;70.08
81274;BME280;70753;47.908;11.274;2023-07-29T05:31:05;94497.63;;;19.54;70.56
81274;BME280;70753;47.908;11.274;2023-07-29T05:33:31;94507.03;;;19.32;71.63
81274;BME280;70753;47.908;11.274;2023-07-29T05:35:56;94504.06;;;19.09;71.80
81274;BME280;70753;47.908;11.274;2023-07-29T05:38:22;94483.63;;;19.24;71.02
81274;BME280;70753;47.908;11.274;2023-07-29T05:40:49;94466.94;;;19.06;71.98
81274;BME280;70753;47.908;11.274;2023-07-29T05:43:14;94465.16;;;19.26;71.91
81274;BME280;70753;47.908;11.274;2023-07-29T05:45:40;94456.00;;;19.31;72.16
81274;BME280;70753;47.908;11.274;2023-07-29T05:48:05;94474.47;;;19.29;71.77
81274;BME280;70753;47.908;11.274;2023-07-29T05:50:31;94478.41;;;19.31;71.97
81274;BME280;70753;47.908;11.274;2023-07-29T05:52:56;94484.25;;;19.45;71.92
81274;BME280;70753;47.908;11.274;2023-07-29T05:55:22;94482.75;;;19.48;72.11
81274;BME280;70753;47.908;11.274;2023-07-29T05:57:49;94480.31;;;19.43;72.32
81274;BME280;70753;47.908;11.274;2023-07-29T06:00:15;94483.72;;;19.40;73.14
81274;BME280;70753;47.908;11.274;2023-07-29T06:02:40;94475.19;;;19.26;73.63
81274;BME280;70753;47.908;11.274;2023-07-29T06:05:06;94483.56;;;19.48;73.46
81274;BME280;70753;47.908;11.274;2023-07-29T06:07:32;94485.19;;;19.65;73.17
81274;BME280;70753;47.908;11.274;2023-07-29T06:09:57;94483.38;;;19.41;74.33
81274;BME280;70753;47.908;11.274;2023-07-29T06:12:22;94490.47;;;19.06;73.58
81274;BME280;70753;47.908;11.274;2023-07-29T06:14:49;94491.94;;;19.59;73.56
81274;BME280;70753;47.908;11.274;2023-07-29T06:17:15;94502.63;;;19.40;73.39
81274;BME280;70753;47.908;11.274;2023-07-29T06:19:40;94511.75;;;19.63;72.47
81274;BME280;70753;47.908;11.274;2023-07-29T06:22:05;94519.22;;;19.81;72.13
81274;BME280;70753;47.908;11.274;2023-07-29T06:24:31;94557.78;;;19.78;72.15
81274;BME280;70753;47.908;11.274;2023-07-29T06:26:56;94569.19;;;19.72;72.75
81274;BME280;70753;47.908;11.274;2023-07-29T06:29:22;94574.09;;;19.54;72.48
81274;BME280;70753;47.908;11.274;2023-07-29T06:31:49;94570.66;;;19.42;73.39
81274;BME280;70753;47.908;11.274;2023-07-29T06:34:15;94550.28;;;19.32;73.03
81274;BME280;70753;47.908;11.274;2023-07-29T06:36:40;94545.69;;;19.21;73.13
81274;BME280;70753;47.908;11.274;2023-07-29T06:39:05;94553.72;;;19.05;74.51
81274;BME280;70753;47.908;11.274;2023-07-29T06:41:31;94540.28;;;19.21;74.07
81274;BME280;70753;47.908;11.274;2023-07-29T06:43:56;94548.59;;;19.28;73.04
81274;BME280;70753;47.908;11.274;2023-07-29T06:46:21;94537.25;;;19.34;73.00
81274;BME280;70753;47.908;11.274;2023-07-29T06:48:48;94534.19;;;19.36;73.58
81274;BME280;70753;47.908;11.274;2023-07-29T06:51:14;94526.53;;;19.38;72.61
81274;BME280;70753;47.908;11.274;2023-07-29T06:53:39;94535.53;;;19.30;73.04
81274;BME280;70753;47.908;11.274;2023-07-29T06:56:05;94535.19;;;19.43;73.44
81274;BME280;70753;47.908;11.274;2023-07-29T06:58:30;94526.63;;;19.41;73.20
81274;BME280;70753;47.908;11.274;2023-07-29T07:00:55;94527.88;;;19.32;74.02
81274;BME280;70753;47.908;11.274;2023-07-29T07:03:21;94545.09;;;19.39;74.47
81274;BME280;70753;47.908;11.274;2023-07-29T07:05:48;94535.16;;;19.03;75.03
81274;BME280;70753;47.908;11.274;2023-07-29T07:08:13;94535.09;;;19.15;75.55
81274;BME280;70753;47.908;11.274;2023-07-29T07:10:39;94543.28;;;18.91;78.09
81274;BME280;70753;47.908;11.274;2023-07-29T07:13:04;94533.19;;;19.28;76.39
81274;BME280;70753;47.908;11.274;2023-07-29T07:15:30;94541.63;;;19.27;74.02
81274;BME280;70753;47.908;11.274;2023-07-29T07:17:56;94534.16;;;18.96;76.45
81274;BME280;70753;47.908;11.274;2023-07-29T07:20:21;94538.22;;;19.42;74.87
81274;BME280;70753;47.908;11.274;2023-07-29T07:22:48;94528.91;;;19.67;73.31
81274;BME280;70753;47.908;11.274;2023-07-29T07:25:13;94522.28;;;19.52;73.76
81274;BME280;70753;47.908;11.274;2023-07-29T07:27:39;94508.22;;;19.19;75.68
81274;BME280;70753;47.908;11.274;2023-07-29T07:30:05;94491.91;;;19.03;75.89
81274;BME280;70753;47.908;11.274;2023-07-29T07:32:31;94503.34;;;19.25;76.41
81274;BME280;70753;47.908;11.274;2023-07-29T07:34:56;94500.06;;;18.91;77.79
81274;BME280;70753;47.908;11.274;2023-07-29T07:37:22;94502.09;;;19.34;75.20
81274;BME280;70753;47.908;11.274;2023-07-29T07:39:48;94494.19;;;19.41;74.01
81274;BME280;70753;47.908;11.274;2023-07-29T07:42:14;94492.22;;;19.54;74.51
81274;BME280;70753;47.908;11.274;2023-07-29T07:44:39;94487.38;;;19.75;74.44
81274;BME280;70753;47.908;11.274;2023-07-29T07:47:05;94491.84;;;19.99;74.57
81274;BME280;70753;47.908;11.274;2023-07-29T07:49:30;94497.44;;;20.06;73.44
81274;BME280;70753;47.908;11.274;2023-07-29T07:51:56;94500.22;;;19.94;73.50
81274;BME280;70753;47.908;11.274;2023-07-29T07:54:21;94510.56;;;19.76;74.48
81274;BME280;70753;47.908;11.274;2023-07-29T07:56:49;94496.81;;;20.12;72.99
81274;BME280;70753;47.908;11.274;2023-07-29T07:59:15;94509.22;;;20.13;72.95
81274;BME280;70753;47.908;11.274;2023-07-29T08:01:40;94503.56;;;20.34;72.38
81274;BME280;70753;47.908;11.274;2023-07-29T08:04:06;94502.81;;;20.33;73.85
81274;BME280;70753;47.908;11.274;2023-07-29T08:06:32;94500.28;;;20.25;74.22
81274;BME280;70753;47.908;11.274;2023-07-29T08:08:58;94494.06;;;20.24;73.93
81274;BME280;70753;47.908;11.274;2023-07-29T08:11:23;94500.28;;;20.25;74.57
81274;BME280;70753;47.908;11.274;2023-07-29T08:13:51;94499.97;;;20.45;73.29
81274;BME280;70753;47.908;11.274;2023-07-29T08:16:16;94514.50;;;20.22;73.50
81274;BME280;70753;47.908;11.274;2023-07-29T08:18:41;94511.75;;;20.06;75.39
81274;BME280;70753;47.908;11.274;2023-07-29T08:21:07;94508.81;;;20.27;74.53
81274;BME280;70753;47.908;11.274;2023-07-29T08:23:34;94521.13;;;20.40;74.79
81274;BME280;70753;47.908;11.274;2023-07-29T08:26:01;94518.88;;;20.26;74.04
81274;BME280;70753;47.908;11.274;2023-07-29T08:28:27;94513.19;;;20.82;73.57
81274;BME280;70753;47.908;11.274;2023-07-29T08:30:54;94513.00;;;21.06;71.85
81274;BME280;70753;47.908;11.274;2023-07-29T08:33:20;94512.06;;;20.83;73.49
81274;BME280;70753;47.908;11.274;2023-07-29T08:35:45;94514.75;;;20.32;74.12
81274;BME280;70753;47.908;11.274;2023-07-29T08:38:11;94504.84;;;20.55;74.31
81274;BME280;70753;47.908;11.274;2023-07-29T08:40:41;94495.34;;;20.61;74.28
81274;BME280;70753;47.908;11.274;2023-07-29T08:43:09;94497.94;;;20.58;75.25
81274;BME280;70753;47.908;11.274;2023-07-29T08:45:38;94488.53;;;20.36;75.21
81274;BME280;70753;47.908;11.274;2023-07-29T08:48:08;94488.16;;;20.69;74.43
81274;BME280;70753;47.908;11.274;2023-07-29T08:50:35;94490.34;;;20.63;74.52
81274;BME280;70753;47.908;11.274;2023-07-29T08:53:04;94492.22;;;21.13;73.82
81274;BME280;70753;47.908;11.274;2023-07-29T08:55:29;94482.91;;;21.11;72.52
81274;BME280;70753;47.908;11.274;2023-07-29T08:57:56;94482.47;;;21.09;71.91
81274;BME280;70753;47.908;11.274;2023-07-29T09:00:23;94491.47;;;21.13;74.17
81274;BME280;70753;47.908;11.274;2023-07-29T09:02:49;94494.44;;;21.65;72.27
81274;BME280;70753;47.908;11.274;2023-07-29T09:05:16;94487.69;;;21.97;69.53
81274;BME280;70753;47.908;11.274;2023-07-29T09:07:42;94482.88;;;21.87;71.96
81274;BME280;70753;47.908;11.274;2023-07-29T09:10:09;94492.47;;;21.62;72.49
81274;BME280;70753;47.908;11.274;2023-07-29T09:12:35;94484.34;;;21.43;72.04
81274;BME280;70753;47.908;11.274;2023-07-29T09:15:00;94497.00;;;21.96;71.08
81274;BME280;70753;47.908;11.274;2023-07-29T09:17:25;94495.56;;;22.02;72.28
81274;BME280;70753;47.908;11.274;2023-07-29T09:19:51;94483.50;;;22.23;72.17
81274;BME280;70753;47.908;11.274;2023-07-29T09:22:19;94484.25;;;22.46;71.38
81274;BME280;70753;47.908;11.274;2023-07-29T09:24:48;94483.59;;;22.78;70.20
81274;BME280;70753;47.908;11.274;2023-07-29T09:27:23;94483.03;;;22.92;70.07
81274;BME280;70753;47.908;11.274;2023-07-29T09:29:49;94484.22;;;22.68;68.77
81274;BME280;70753;47.908;11.274;2023-07-29T09:32:19;94488.03;;;22.90;66.58
81274;BME280;70753;47.908;11.274;2023-07-29T09:34:46;94481.31;;;22.58;67.21
81274;BME280;70753;47.908;11.274;2023-07-29T09:37:15;94478.66;;;22.35;66.25
81274;BME280;70753;47.908;11.274;2023-07-29T09:39:44;94472.69;;;22.75;68.44
81274;BME280;70753;47.908;11.274;2023-07-29T09:42:11;94477.13;;;22.86;66.86
81274;BME280;70753;47.908;11.274;2023-07-29T09:44:38;94473.75;;;22.67;68.51
81274;BME280;70753;47.908;11.274;2023-07-29T09:47:03;94471.16;;;22.77;68.29
81274;BME280;70753;47.908;11.274;2023-07-29T09:49:34;94471.03;;;23.56;65.66
81274;BME280;70753;47.908;11.274;2023-07-29T09:52:00;94467.88;;;23.84;63.00
81274;BME280;70753;47.908;11.274;2023-07-29T09:54:25;94455.91;;;23.95;61.44
81274;BME280;70753;47.908;11.274;2023-07-29T09:56:52;94456.34;;;24.41;62.29
81274;BME280;70753;47.908;11.274;2023-07-29T09:59:19;94451.56;;;24.78;62.69
81274;BME280;70753;47.908;11.274;2023-07-29T10:01:45;94452.97;;;24.58;60.66
81274;BME280;70753;47.908;11.274;2023-07-29T10:04:11;94452.34;;;24.75;62.52
81274;BME280;70753;47.908;11.274;2023-07-29T10:06:39;94454.72;;;24.87;59.72
81274;BME280;70753;47.908;11.274;2023-07-29T10:09:05;94450.84;;;24.88;59.20
81274;BME280;70753;47.908;11.274;2023-07-29T10:11:32;94451.19;;;25.59;57.55
81274;BME280;70753;47.908;11.274;2023-07-29T10:14:00;94454.50;;;26.38;56.36
81274;BME280;70753;47.908;11.274;2023-07-29T10:16:26;94440.81;;;26.88;51.94
81274;BME280;70753;47.908;11.274;2023-07-29T10:18:53;94445.78;;;27.21;50.80
81274;BME280;70753;47.908;11.274;2023-07-29T10:21:22;94439.25;;;26.80;49.10
81274;BME280;70753;47.908;11.274;2023-07-29T10:23:49;94439.97;;;27.12;52.23
81274;BME280;70753;47.908;11.274;2023-07-29T10:26:19;94437.25;;;27.98;48.92
81274;BME280;70753;47.908;11.274;2023-07-29T10:28:47;94432.03;;;28.69;45.08
81274;BME280;70753;47.908;11.274;2023-07-29T10:31:15;94434.63;;;28.87;44.89
81274;BME280;70753;47.908;11.274;2023-07-29T10:33:41;94424.47;;;28.36;45.27
81274;BME280;70753;47.908;11.274;2023-07-29T10:36:08;94431.66;;;28.20;45.26
81274;BME280;70753;47.908;11.274;2023-07-29T10:38:34;94433.63;;;28.16;45.42
81274;BME280;70753;47.908;11.274;2023-07-29T10:41:00;94429.66;;;28.24;44.23
81274;BME280;70753;47.908;11.274;2023-07-29T10:43:26;94429.56;;;27.69;46.50
81274;BME280;70753;47.908;11.274;2023-07-29T10:45:55;94429.41;;;27.07;47.96
81274;BME280;70753;47.908;11.274;2023-07-29T10:48:41;94427.84;;;27.02;48.66
81274;BME280;70753;47.908;11.274;2023-07-29T10:51:25;94426.75;;;26.75;50.45
81274;BME280;70753;47.908;11.274;2023-07-29T10:53:53;94425.09;;;27.16;50.62
81274;BME280;70753;47.908;11.274;2023-07-29T10:56:24;94428.59;;;27.20;48.66
81274;BME280;70753;47.908;11.274;2023-07-29T10:58:51;94427.88;;;26.92;48.24
81274;BME280;70753;47.908;11.274;2023-07-29T11:01:26;94425.97;;;26.46;48.86
81274;BME280;70753;47.908;11.274;2023-07-29T11:04:21;94432.94;;;26.05;50.44
81274;BME280;70753;47.908;11.274;2023-07-29T11:07:19;94425.56;;;26.83;49.55
81274;BME280;70753;47.908;11.274;2023-07-29T11:09:52;94422.56;;;27.64;47.05
81274;BME280;70753;47.908;11.274;2023-07-29T11:12:41;94414.28;;;27.75;47.18
81274;BME280;70753;47.908;11.274;2023-07-29T11:15:18;94418.84;;;28.50;45.61
81274;BME280;70753;47.908;11.274;2023-07-29T11:17:45;94419.59;;;28.99;43.58
81274;BME280;70753;47.908;11.274;2023-07-29T11:20:13;94408.66;;;29.63;42.30
81274;BME280;70753;47.908;11.274;2023-07-29T11:22:41;94425.53;;;29.95;41.32
81274;BME280;70753;47.908;11.274;2023-07-29T11:25:08;94416.75;;;30.30;39.14
81274;BME280;70753;47.908;11.274;2023-07-29T11:27:34;94409.31;;;30.27;39.11
81274;BME280;70753;47.908;11.274;2023-07-29T11:30:01;94406.00;;;29.86;39.18
81274;BME280;70753;47.908;11.274;2023-07-29T11:32:29;94409.88;;;29.28;40.09
81274;BME280;70753;47.908;11.274;2023-07-29T11:34:54;94407.78;;;29.05;41.90
81274;BME280;70753;47.908;11.274;2023-07-29T11:37:21;94397.31;;;29.30;40.64
81274;BME280;70753;47.908;11.274;2023-07-29T11:39:47;94416.22;;;28.84;39.97
81274;BME280;70753;47.908;11.274;2023-07-29T11:42:13;94406.25;;;28.56;41.60
81274;BME280;70753;47.908;11.274;2023-07-29T11:44:39;94402.53;;;28.36;42.86
81274;BME280;70753;47.908;11.274;2023-07-29T11:47:06;94413.13;;;28.31;42.33
81274;BME280;70753;47.908;11.274;2023-07-29T11:49:32;94413.97;;;28.28;42.07
81274;BME280;70753;47.908;11.274;2023-07-29T11:51:58;94388.50;;;28.27;42.41
81274;BME280;70753;47.908;11.274;2023-07-29T11:54:25;94394.31;;;28.33;42.72
81274;BME280;70753;47.908;11.274;2023-07-29T11:56:51;94392.03;;;28.28;43.00
81274;BME280;70753;47.908;11.274;2023-07-29T11:59:16;94390.44;;;28.30;42.49
81274;BME280;70753;47.908;11.274;2023-07-29T12:01:42;94390.78;;;27.81;42.73
81274;BME280;70753;47.908;11.274;2023-07-29T12:04:07;94382.03;;;27.96;42.91
81274;BME280;70753;47.908;11.274;2023-07-29T12:06:33;94381.00;;;27.76;43.32
81274;BME280;70753;47.908;11.274;2023-07-29T12:08:59;94380.63;;;27.74;42.52
81274;BME280;70753;47.908;11.274;2023-07-29T12:11:26;94369.78;;;27.53;42.94
81274;BME280;70753;47.908;11.274;2023-07-29T12:13:53;94359.66;;;27.50;42.67
81274;BME280;70753;47.908;11.274;2023-07-29T12:16:18;94367.50;;;27.41;43.79
81274;BME280;70753;47.908;11.274;2023-07-29T12:18:44;94348.66;;;27.54;43.52
81274;BME280;70753;47.908;11.274;2023-07-29T12:21:09;94349.25;;;27.82;44.88
81274;BME280;70753;47.908;11.274;2023-07-29T12:23:35;94344.78;;;28.54;42.38
81274;BME280;70753;47.908;11.274;2023-07-29T12:26:01;94354.50;;;28.62;41.62
81274;BME280;70753;47.908;11.274;2023-07-29T12:28:28;94356.34;;;28.75;40.44
81274;BME280;70753;47.908;11.274;2023-07-29T12:30:54;94353.91;;;29.18;41.77
81274;BME280;70753;47.908;11.274;2023-07-29T12:33:32;94347.94;;;29.23;40.34
81274;BME280;70753;47.908;11.274;2023-07-29T12:35:58;94348.50;;;29.41;39.23
81274;BME280;70753;47.908;11.274;2023-07-29T12:38:25;94350.47;;;29.07;39.72
81274;BME280;70753;47.908;11.274;2023-07-29T12:40:51;94339.53;;;29.04;40.22
81274;BME280;70753;47.908;11.274;2023-07-29T12:43:17;94343.19;;;29.27;40.00
81274;BME280;70753;47.908;11.274;2023-07-29T12:45:43;94342.81;;;29.55;39.69
81274;BME280;70753;47.908;11.274;2023-07-29T12:48:09;94339.72;;;30.07;37.93